createdAt,value
2022-08-30T00:01:29.629Z,61.23
2022-08-30T00:03:58.718Z,61.17
2022-08-30T00:06:27.004Z,61.06
2022-08-30T00:08:55.077Z,61.14
2022-08-30T00:11:23.971Z,61.12
2022-08-30T00:13:52.449Z,60.78
2022-08-30T00:16:20.717Z,61.02
2022-08-30T00:18:52.245Z,61.55
2022-08-30T00:21:19.925Z,60.90
2022-08-30T00:23:55.300Z,60.24
2022-08-30T00:26:23.626Z,60.24
2022-08-30T00:28:51.126Z,61.54
2022-08-30T00:31:18.443Z,62.32
2022-08-30T00:33:46.037Z,61.58
2022-08-30T00:36:13.413Z,61.52
2022-08-30T00:38:40.818Z,61.18
2022-08-30T00:41:08.490Z,61.33
2022-08-30T00:43:36.702Z,61.35
2022-08-30T00:46:07.795Z,61.58
2022-08-30T00:48:37.000Z,62.20
2022-08-30T00:51:06.500Z,62.08
2022-08-30T00:53:38.241Z,61.21
2022-08-30T00:56:06.541Z,61.94
2022-08-30T00:58:35.129Z,61.10
2022-08-30T01:01:03.366Z,61.58
2022-08-30T01:03:31.088Z,61.97
2022-08-30T01:05:58.948Z,61.29
2022-08-30T01:08:26.600Z,60.95
2022-08-30T01:10:54.583Z,61.08
2022-08-30T01:13:23.046Z,61.17
2022-08-30T01:15:50.732Z,62.29
2022-08-30T01:18:22.161Z,63.22
2022-08-30T01:20:51.462Z,63.38
2022-08-30T01:23:19.462Z,62.76
2022-08-30T01:25:49.171Z,62.58
2022-08-30T01:28:26.944Z,62.24
2022-08-30T01:30:54.658Z,61.91
2022-08-30T01:33:22.681Z,61.28
2022-08-30T01:36:12.417Z,60.90
2022-08-30T01:38:40.800Z,60.85
2022-08-30T01:41:14.647Z,60.26
2022-08-30T01:43:42.724Z,60.92
2022-08-30T01:46:12.029Z,61.14
2022-08-30T01:48:40.735Z,61.06
2022-08-30T01:51:10.487Z,60.80
2022-08-30T01:53:38.749Z,60.50
2022-08-30T01:56:08.410Z,60.66
2022-08-30T01:58:36.523Z,60.95
2022-08-30T02:01:05.568Z,61.40
2022-08-30T02:03:35.376Z,61.18
2022-08-30T02:06:04.265Z,61.17
2022-08-30T02:08:32.788Z,61.13
2022-08-30T02:11:02.556Z,61.31
2022-08-30T02:13:30.672Z,61.15
2022-08-30T02:15:58.023Z,60.64
2022-08-30T02:18:26.033Z,60.79
2022-08-30T02:20:53.731Z,60.99
2022-08-30T02:23:20.941Z,60.84
2022-08-30T02:25:48.733Z,60.85
2022-08-30T02:28:22.746Z,61.64
2022-08-30T02:30:52.821Z,61.45
2022-08-30T02:33:20.929Z,61.56
2022-08-30T02:35:48.175Z,61.48
2022-08-30T02:38:15.896Z,61.74
2022-08-30T02:40:47.555Z,61.46
2022-08-30T02:43:15.028Z,61.29
2022-08-30T02:45:43.642Z,61.91
2022-08-30T02:48:11.096Z,61.72
2022-08-30T02:50:42.453Z,62.01
2022-08-30T02:53:12.724Z,61.86
2022-08-30T02:55:44.649Z,61.81
2022-08-30T02:58:12.734Z,61.93
2022-08-30T03:00:41.819Z,61.92
2022-08-30T03:03:09.145Z,62.15
2022-08-30T03:05:39.816Z,62.31
2022-08-30T03:08:08.562Z,62.97
2022-08-30T03:10:36.782Z,62.76
2022-08-30T03:13:07.770Z,62.53
2022-08-30T03:15:35.650Z,62.27
2022-08-30T03:18:03.714Z,63.16
2022-08-30T03:20:37.449Z,62.74
2022-08-30T03:23:06.530Z,63.13
2022-08-30T03:25:36.430Z,62.42
2022-08-30T03:28:05.460Z,62.72
2022-08-30T03:30:35.384Z,63.04
2022-08-30T03:33:04.753Z,62.50
2022-08-30T03:35:35.584Z,62.93
2022-08-30T03:38:03.057Z,62.79
2022-08-30T03:40:34.480Z,63.00
2022-08-30T03:43:03.670Z,63.11
2022-08-30T03:45:32.334Z,63.18
2022-08-30T03:48:00.318Z,63.17
2022-08-30T03:50:29.038Z,63.28
2022-08-30T03:52:56.954Z,63.07
2022-08-30T03:55:24.302Z,62.90
2022-08-30T03:57:52.083Z,62.84
2022-08-30T04:00:19.653Z,63.21
2022-08-30T04:02:47.678Z,63.07
2022-08-30T04:05:18.704Z,64.14
2022-08-30T04:07:48.633Z,63.83
2022-08-30T04:10:17.208Z,63.61
2022-08-30T04:12:49.361Z,63.91
2022-08-30T04:15:18.957Z,64.29
2022-08-30T04:17:49.130Z,63.21
2022-08-30T04:20:27.514Z,64.17
2022-08-30T04:22:59.892Z,64.29
2022-08-30T04:25:27.981Z,63.81
2022-08-30T04:27:56.635Z,64.47
2022-08-30T04:30:23.955Z,63.87
2022-08-30T04:32:54.502Z,63.76
2022-08-30T04:35:26.151Z,64.78
2022-08-30T04:37:54.306Z,64.42
2022-08-30T04:40:21.897Z,64.91
2022-08-30T04:42:54.104Z,65.12
2022-08-30T04:45:22.271Z,64.92
2022-08-30T04:47:50.594Z,66.44
2022-08-30T04:50:19.751Z,66.22
2022-08-30T04:52:48.562Z,66.48
2022-08-30T04:55:20.172Z,65.82
2022-08-30T04:57:50.224Z,65.67
2022-08-30T05:00:30.556Z,65.02
2022-08-30T05:02:59.962Z,63.93
2022-08-30T05:05:42.104Z,63.72
2022-08-30T05:08:16.745Z,63.47
2022-08-30T05:10:48.698Z,64.14
2022-08-30T05:13:17.313Z,63.43
2022-08-30T05:15:45.677Z,63.55
2022-08-30T05:18:24.621Z,63.42
2022-08-30T05:21:04.723Z,62.89
2022-08-30T05:23:32.351Z,62.67
2022-08-30T05:26:04.666Z,63.31
2022-08-30T05:28:32.510Z,63.27
2022-08-30T05:33:38.725Z,65.17
2022-08-30T05:36:09.927Z,64.76
2022-08-30T05:38:37.738Z,64.68
2022-08-30T05:41:10.976Z,64.63
2022-08-30T05:43:39.134Z,64.94
2022-08-30T05:46:07.659Z,64.20
2022-08-30T05:48:36.020Z,63.83
2022-08-30T05:51:06.916Z,63.10
2022-08-30T05:53:36.402Z,62.28
2022-08-30T05:59:57.539Z,62.24
2022-08-30T06:02:33.636Z,60.11
2022-08-30T06:05:04.595Z,58.56
2022-08-30T06:07:35.500Z,57.53
2022-08-30T06:10:03.996Z,54.83
2022-08-30T06:12:32.575Z,53.83
2022-08-30T06:15:00.820Z,54.73
2022-08-30T06:17:28.819Z,52.62
2022-08-30T06:20:02.860Z,51.13
2022-08-30T06:22:39.582Z,50.73
2022-08-30T06:25:16.619Z,50.82
2022-08-30T06:27:56.574Z,50.64
2022-08-30T06:30:24.418Z,49.05
2022-08-30T06:32:52.329Z,50.50
2022-08-30T06:35:25.678Z,51.27
2022-08-30T06:37:57.864Z,50.06
2022-08-30T06:40:26.082Z,48.25
2022-08-30T06:42:56.565Z,48.24
2022-08-30T06:45:24.443Z,48.82
2022-08-30T06:47:59.894Z,47.42
2022-08-30T06:50:27.947Z,47.79
2022-08-30T06:53:15.542Z,47.27
2022-08-30T06:55:44.639Z,47.55
2022-08-30T06:58:12.471Z,48.82
2022-08-30T07:00:41.981Z,48.41
2022-08-30T07:03:10.786Z,46.23
2022-08-30T07:05:47.491Z,45.63
2022-08-30T07:08:22.619Z,48.02
2022-08-30T07:10:54.843Z,45.15
2022-08-30T07:13:24.237Z,45.35
2022-08-30T07:15:52.760Z,45.36
2022-08-30T07:18:40.875Z,44.91
2022-08-30T07:21:16.778Z,45.08
2022-08-30T07:23:53.201Z,44.38
2022-08-30T07:26:24.654Z,44.24
2022-08-30T07:28:55.857Z,42.89
2022-08-30T07:31:25.801Z,43.69
2022-08-30T07:33:54.987Z,43.06
2022-08-30T07:36:26.784Z,42.71
2022-08-30T07:38:56.619Z,44.83
2022-08-30T07:41:26.815Z,44.25
2022-08-30T07:43:56.068Z,44.53
2022-08-30T07:46:26.468Z,43.20
2022-08-30T07:53:02.143Z,45.14
2022-08-30T07:55:29.807Z,42.64
2022-08-30T07:57:57.199Z,42.83
2022-08-30T08:00:24.500Z,42.07
2022-08-30T08:02:52.278Z,43.14
2022-08-30T08:05:23.122Z,41.53
2022-08-30T08:07:52.449Z,38.83
2022-08-30T08:10:19.791Z,40.35
2022-08-30T08:12:47.306Z,40.45
2022-08-30T08:15:14.879Z,39.01
2022-08-30T08:17:42.214Z,39.44
2022-08-30T08:20:09.816Z,38.51
2022-08-30T08:22:40.230Z,39.46
2022-08-30T08:25:07.850Z,41.96
2022-08-30T08:27:35.166Z,39.48
2022-08-30T08:30:02.983Z,39.71
2022-08-30T08:32:30.264Z,38.76
2022-08-30T08:34:57.520Z,38.56
2022-08-30T08:37:27.843Z,40.10
2022-08-30T08:39:55.814Z,38.50
2022-08-30T08:42:35.752Z,39.26
2022-08-30T08:45:12.017Z,39.79
2022-08-30T08:47:40.812Z,37.99
2022-08-30T08:50:11.801Z,37.71
2022-08-30T08:53:06.183Z,37.86
2022-08-30T08:55:33.764Z,37.48
2022-08-30T08:58:01.418Z,37.57
2022-08-30T09:00:30.107Z,37.37
2022-08-30T09:02:59.494Z,38.70
2022-08-30T09:05:28.059Z,38.76
2022-08-30T09:08:01.276Z,37.27
2022-08-30T09:10:49.372Z,37.34
2022-08-30T09:13:18.824Z,37.46
2022-08-30T09:15:49.956Z,36.24
2022-08-30T09:18:28.709Z,38.84
2022-08-30T09:20:57.521Z,37.79
2022-08-30T09:23:35.408Z,36.74
2022-08-30T09:26:15.775Z,37.29
2022-08-30T09:28:51.322Z,36.09
2022-08-30T09:31:19.186Z,34.20
2022-08-30T09:34:03.874Z,34.55
2022-08-30T09:36:45.256Z,38.62
2022-08-30T09:39:29.350Z,37.35
2022-08-30T09:42:13.067Z,39.27
2022-08-30T09:44:40.582Z,34.50
2022-08-30T09:55:02.774Z,35.74
2022-08-30T09:57:37.107Z,37.93
2022-08-30T10:00:09.122Z,35.85
2022-08-30T10:02:41.146Z,36.50
2022-08-30T10:05:16.646Z,36.20
2022-08-30T10:07:44.795Z,37.19
2022-08-30T10:10:16.442Z,36.24
2022-08-30T10:12:49.953Z,37.10
2022-08-30T10:15:17.736Z,36.85
2022-08-30T10:18:07.977Z,36.85
2022-08-30T10:20:35.589Z,35.63
2022-08-30T10:23:10.854Z,36.93
2022-08-30T10:25:40.309Z,37.38
2022-08-30T10:28:12.970Z,37.04
2022-08-30T10:30:42.803Z,35.06
2022-08-30T10:33:13.613Z,36.23
2022-08-30T10:35:48.940Z,37.70
2022-08-30T10:38:16.588Z,37.48
2022-08-30T10:41:03.626Z,36.45
2022-08-30T10:43:41.174Z,35.99
2022-08-30T10:46:27.502Z,35.02
2022-08-30T10:48:57.647Z,36.07
2022-08-30T10:51:28.223Z,36.48
2022-08-30T10:54:10.814Z,35.83
2022-08-30T10:56:39.369Z,35.37
2022-08-30T10:59:11.926Z,35.42
2022-08-30T11:01:46.479Z,34.37
2022-08-30T11:04:20.076Z,34.06
2022-08-30T11:07:09.991Z,33.45
2022-08-30T11:09:40.606Z,31.55
2022-08-30T11:12:27.845Z,32.08
2022-08-30T11:15:01.858Z,32.31
2022-08-30T11:17:30.950Z,32.97
2022-08-30T11:19:59.173Z,31.32
2022-08-30T11:22:32.457Z,31.33
2022-08-30T11:25:12.742Z,31.43
2022-08-30T11:27:47.650Z,32.64
2022-08-30T11:33:13.094Z,33.08
2022-08-30T11:35:52.766Z,37.27
2022-08-30T11:38:26.590Z,33.78
2022-08-30T11:40:54.386Z,33.86
2022-08-30T11:43:34.043Z,34.95
2022-08-30T11:46:14.767Z,37.07
2022-08-30T11:48:54.243Z,33.74
2022-08-30T11:51:35.487Z,33.87
2022-08-30T11:54:06.850Z,31.90
2022-08-30T11:56:46.916Z,32.97
2022-08-30T11:59:30.191Z,34.03
2022-08-30T12:02:00.181Z,31.40
2022-08-30T12:04:30.170Z,31.65
2022-08-30T12:07:04.286Z,31.67
2022-08-30T12:09:35.390Z,33.72
2022-08-30T12:12:02.859Z,30.25
2022-08-30T12:14:34.990Z,30.95
2022-08-30T12:17:22.426Z,30.89
2022-08-30T12:19:53.521Z,28.59
2022-08-30T12:22:22.067Z,29.85
2022-08-30T12:24:50.483Z,29.86
2022-08-30T12:27:25.115Z,29.38
2022-08-30T12:29:54.282Z,32.60
2022-08-30T12:32:24.778Z,28.82
2022-08-30T12:35:00.592Z,29.62
2022-08-30T12:37:27.851Z,28.97
2022-08-30T12:40:02.087Z,29.53
2022-08-30T12:42:30.981Z,34.38
2022-08-30T12:44:59.636Z,32.49
2022-08-30T12:47:32.325Z,29.64
2022-08-30T12:50:00.190Z,31.12
2022-08-30T12:52:29.514Z,30.02
2022-08-30T12:55:05.810Z,30.58
2022-08-30T12:58:00.715Z,28.37
2022-08-30T13:00:35.861Z,30.49
2022-08-30T13:03:24.188Z,30.50
2022-08-30T13:05:53.172Z,32.45
2022-08-30T13:08:27.638Z,30.83
2022-08-30T13:10:59.657Z,30.51
2022-08-30T13:13:27.436Z,30.59
2022-08-30T13:15:55.184Z,31.25
2022-08-30T13:18:35.505Z,30.44
2022-08-30T13:21:22.592Z,32.76
2022-08-30T13:23:50.780Z,32.02
2022-08-30T13:26:23.153Z,30.57
2022-08-30T13:28:51.938Z,28.92
2022-08-30T13:31:20.002Z,30.56
2022-08-30T13:33:47.430Z,29.14
2022-08-30T13:36:15.274Z,28.42
2022-08-30T13:38:43.374Z,30.47
2022-08-30T13:41:11.105Z,30.56
2022-08-30T13:46:27.236Z,31.99
2022-08-30T13:48:56.630Z,29.90
2022-08-30T13:51:24.402Z,29.52
2022-08-30T13:53:53.513Z,29.20
2022-08-30T13:56:21.439Z,29.66
2022-08-30T13:58:48.739Z,27.89
2022-08-30T14:01:16.451Z,28.85
2022-08-30T14:06:33.997Z,32.05
2022-08-30T14:09:04.496Z,30.61
2022-08-30T14:11:32.422Z,28.34
2022-08-30T14:14:20.861Z,29.00
2022-08-30T14:16:48.512Z,29.27
2022-08-30T14:19:17.040Z,29.27
2022-08-30T14:21:49.019Z,31.18
2022-08-30T14:24:19.898Z,31.22
2022-08-30T14:26:48.612Z,31.64
2022-08-30T14:29:16.929Z,32.03
2022-08-30T14:31:45.078Z,30.20
2022-08-30T14:34:14.492Z,31.67
2022-08-30T14:36:42.337Z,32.25
2022-08-30T14:39:11.861Z,30.25
2022-08-30T14:41:44.050Z,30.11
2022-08-30T14:44:12.897Z,30.75
2022-08-30T14:46:40.506Z,33.40
2022-08-30T14:49:10.189Z,29.62
2022-08-30T14:51:39.226Z,30.57
2022-08-30T14:54:06.522Z,30.91
2022-08-30T14:56:33.832Z,31.40
2022-08-30T14:59:03.271Z,33.11
2022-08-30T15:01:31.348Z,32.34
2022-08-30T15:03:58.890Z,31.81
2022-08-30T15:06:26.616Z,32.61
2022-08-30T15:08:54.837Z,32.55
2022-08-30T15:11:23.550Z,33.14
2022-08-30T15:13:52.960Z,35.34
2022-08-30T15:16:25.286Z,33.38
2022-08-30T15:18:52.902Z,33.47
2022-08-30T15:21:28.352Z,34.25
2022-08-30T15:23:56.432Z,33.99
2022-08-30T15:26:23.914Z,34.25
2022-08-30T15:28:51.545Z,34.61
2022-08-30T15:31:19.887Z,36.13
2022-08-30T15:33:47.650Z,35.02
2022-08-30T15:36:17.115Z,35.29
2022-08-30T15:38:45.717Z,38.14
2022-08-30T15:41:13.142Z,38.12
2022-08-30T15:43:43.327Z,37.30
2022-08-30T15:46:22.687Z,36.11
2022-08-30T15:48:51.922Z,36.08
2022-08-30T15:51:19.707Z,37.29
2022-08-30T15:53:47.037Z,36.10
2022-08-30T15:56:15.745Z,37.98
2022-08-30T15:58:43.593Z,37.61
2022-08-30T16:01:11.310Z,37.59
2022-08-30T16:03:41.674Z,36.09
2022-08-30T16:06:13.292Z,38.17
2022-08-30T16:08:41.092Z,35.81
2022-08-30T16:11:09.038Z,35.64
2022-08-30T16:13:36.298Z,35.45
2022-08-30T16:16:04.542Z,38.15
2022-08-30T16:18:31.881Z,37.49
2022-08-30T16:24:46.678Z,36.06
2022-08-30T16:27:14.430Z,38.76
2022-08-30T16:29:41.677Z,36.14
2022-08-30T16:32:08.922Z,36.27
2022-08-30T16:34:37.277Z,35.48
2022-08-30T16:37:05.441Z,37.75
2022-08-30T16:39:32.678Z,37.24
2022-08-30T16:42:03.075Z,37.15
2022-08-30T16:44:30.522Z,37.46
2022-08-30T16:46:57.842Z,37.59
2022-08-30T16:49:25.784Z,35.21
2022-08-30T16:51:53.083Z,35.28
2022-08-30T16:54:20.494Z,34.97
2022-08-30T16:56:48.078Z,35.14
2022-08-30T16:59:16.816Z,35.58
2022-08-30T17:01:44.781Z,34.90
2022-08-30T17:04:13.810Z,34.61
2022-08-30T17:06:46.146Z,35.88
2022-08-30T17:09:15.087Z,36.88
2022-08-30T17:11:42.627Z,35.96
2022-08-30T17:14:10.089Z,36.03
2022-08-30T17:16:37.706Z,36.27
2022-08-30T17:19:28.934Z,36.41
2022-08-30T17:21:58.032Z,37.27
2022-08-30T17:24:25.749Z,37.18
2022-08-30T17:26:54.498Z,37.64
2022-08-30T17:29:22.154Z,37.51
2022-08-30T17:31:50.878Z,38.01
2022-08-30T17:34:21.893Z,38.02
2022-08-30T17:36:50.338Z,38.05
2022-08-30T17:39:17.636Z,39.19
2022-08-30T17:41:48.301Z,39.09
2022-08-30T17:44:19.230Z,39.73
2022-08-30T17:46:46.729Z,40.91
2022-08-30T17:49:14.180Z,40.77
2022-08-30T17:51:44.379Z,40.42
2022-08-30T17:54:13.024Z,40.60
2022-08-30T17:56:40.814Z,41.92
2022-08-30T17:59:10.097Z,42.34
2022-08-30T18:01:37.646Z,42.60
2022-08-30T18:04:06.071Z,42.02
2022-08-30T18:06:34.438Z,41.75
2022-08-30T18:09:02.382Z,42.09
2022-08-30T18:11:31.301Z,42.30
2022-08-30T18:13:58.813Z,42.52
2022-08-30T18:16:26.708Z,42.29
2022-08-30T18:18:57.274Z,42.78
2022-08-30T18:21:25.305Z,42.37
2022-08-30T18:23:52.880Z,43.19
2022-08-30T18:26:24.081Z,43.04
2022-08-30T18:28:51.798Z,43.36
2022-08-30T18:31:20.607Z,43.68
2022-08-30T18:33:50.047Z,44.25
2022-08-30T18:36:18.678Z,44.18
2022-08-30T18:38:45.908Z,44.60
2022-08-30T18:41:16.079Z,44.79
2022-08-30T18:43:43.562Z,45.31
2022-08-30T18:46:15.186Z,45.10
2022-08-30T18:48:46.431Z,45.52
2022-08-30T18:51:14.804Z,46.28
2022-08-30T18:53:42.898Z,46.48
2022-08-30T18:56:14.683Z,45.94
2022-08-30T18:58:44.618Z,46.04
2022-08-30T19:01:13.034Z,46.28
2022-08-30T19:03:40.761Z,46.28
2022-08-30T19:06:11.381Z,46.48
2022-08-30T19:08:40.396Z,46.83
2022-08-30T19:11:08.813Z,46.73
2022-08-30T19:13:36.749Z,46.04
2022-08-30T19:16:05.465Z,46.97
2022-08-30T19:18:34.315Z,46.88
2022-08-30T19:21:06.146Z,47.91
2022-08-30T19:23:41.048Z,47.40
2022-08-30T19:26:10.833Z,47.58
2022-08-30T19:28:38.721Z,47.32
2022-08-30T19:31:06.637Z,47.25
2022-08-30T19:33:34.831Z,46.81
2022-08-30T19:36:03.582Z,47.13
2022-08-30T19:38:34.133Z,47.10
2022-08-30T19:41:02.826Z,48.24
2022-08-30T19:43:31.730Z,47.83
2022-08-30T19:45:59.791Z,47.67
2022-08-30T19:48:32.607Z,47.78
2022-08-30T19:51:08.014Z,47.86
2022-08-30T19:53:39.031Z,47.18
2022-08-30T19:56:06.325Z,48.43
2022-08-30T19:58:34.490Z,48.48
2022-08-30T20:01:11.659Z,48.22
2022-08-30T20:03:53.684Z,48.10
2022-08-30T20:06:24.039Z,47.77
2022-08-30T20:08:52.076Z,47.74
2022-08-30T20:11:24.146Z,47.87
2022-08-30T20:13:51.788Z,48.59
2022-08-30T20:16:19.138Z,48.69
2022-08-30T20:18:48.995Z,48.64
2022-08-30T20:21:16.824Z,48.48
2022-08-30T20:23:44.151Z,48.19
2022-08-30T20:26:12.339Z,48.20
2022-08-30T20:28:42.507Z,48.19
2022-08-30T20:31:11.269Z,48.76
2022-08-30T20:33:39.025Z,48.20
2022-08-30T20:36:07.772Z,48.67
2022-08-30T20:38:35.154Z,49.69
2022-08-30T20:41:03.558Z,49.52
2022-08-30T20:43:31.684Z,49.38
2022-08-30T20:45:59.057Z,49.05
2022-08-30T20:48:28.802Z,48.90
2022-08-30T20:50:56.558Z,49.50
2022-08-30T20:53:23.970Z,49.20
2022-08-30T20:55:51.309Z,49.67
2022-08-30T20:58:19.039Z,49.74
2022-08-30T21:00:50.352Z,49.48
2022-08-30T21:03:27.620Z,49.75
2022-08-30T21:05:56.087Z,49.68
2022-08-30T21:08:26.632Z,49.64
2022-08-30T21:10:55.079Z,49.77
2022-08-30T21:13:22.519Z,49.46
2022-08-30T21:15:54.566Z,49.88
2022-08-30T21:18:22.420Z,50.10
2022-08-30T21:20:50.063Z,50.48
2022-08-30T21:23:17.306Z,50.47
2022-08-30T21:25:44.687Z,50.27
2022-08-30T21:28:12.292Z,50.94
2022-08-30T21:30:39.823Z,51.06
2022-08-30T21:33:07.833Z,50.70
2022-08-30T21:35:55.425Z,50.79
2022-08-30T21:38:23.251Z,50.78
2022-08-30T21:40:51.071Z,51.41
2022-08-30T21:43:18.380Z,51.65
2022-08-30T21:45:45.984Z,51.80
2022-08-30T21:48:13.774Z,51.60
2022-08-30T21:50:41.838Z,51.65
2022-08-30T21:53:09.300Z,51.86
2022-08-30T21:55:37.074Z,51.80
2022-08-30T21:58:04.574Z,52.38
2022-08-30T22:00:33.701Z,52.22
2022-08-30T22:03:01.696Z,51.79
2022-08-30T22:05:29.034Z,51.50
2022-08-30T22:07:56.707Z,51.35
2022-08-30T22:10:24.329Z,51.21
2022-08-30T22:12:52.018Z,52.42
2022-08-30T22:15:19.529Z,52.01
2022-08-30T22:17:47.176Z,52.12
2022-08-30T22:20:18.517Z,51.73
2022-08-30T22:22:45.988Z,51.82
2022-08-30T22:25:13.793Z,52.51
2022-08-30T22:27:41.029Z,52.24
2022-08-30T22:30:08.553Z,51.80
2022-08-30T22:32:38.254Z,52.70
2022-08-30T22:35:05.941Z,53.21
2022-08-30T22:37:34.590Z,53.45
2022-08-30T22:40:02.459Z,53.39
2022-08-30T22:42:29.714Z,53.44
2022-08-30T22:44:56.989Z,53.00
2022-08-30T22:47:24.668Z,52.67
2022-08-30T22:49:52.316Z,52.52
2022-08-30T22:52:24.132Z,52.78
2022-08-30T22:54:53.240Z,53.81
2022-08-30T22:57:20.664Z,53.54
2022-08-30T22:59:48.758Z,53.69
2022-08-30T23:02:16.468Z,53.16
2022-08-30T23:04:43.756Z,52.92
2022-08-30T23:07:11.165Z,53.71
2022-08-30T23:09:38.902Z,53.97
2022-08-30T23:12:06.566Z,53.97
2022-08-30T23:14:34.225Z,53.76
2022-08-30T23:17:01.890Z,54.35
2022-08-30T23:19:29.638Z,54.03
2022-08-30T23:21:57.446Z,53.83
2022-08-30T23:24:46.211Z,53.87
2022-08-30T23:27:35.151Z,53.54
2022-08-30T23:30:22.490Z,54.50
2022-08-30T23:33:08.873Z,55.04
2022-08-30T23:35:55.410Z,55.34
2022-08-30T23:38:41.439Z,55.08
2022-08-30T23:41:30.264Z,55.97
2022-08-30T23:44:20.322Z,56.03
2022-08-30T23:47:06.690Z,55.09
2022-08-30T23:49:52.733Z,55.23
2022-08-30T23:52:39.359Z,55.35
2022-08-30T23:55:25.568Z,55.26
2022-08-30T23:58:12.082Z,55.22
